sensor_id;sensor_type;location;lat;lon;timestamp;temperature;humidity
23685;DHT22;12020;51.384;6.908;2022-08-19T00:01:51;19.40;99.90
23685;DHT22;12020;51.384;6.908;2022-08-19T00:04:18;19.30;99.90
23685;DHT22;12020;51.384;6.908;2022-08-19T00:06:46;19.40;99.90
23685;DHT22;12020;51.384;6.908;2022-08-19T00:09:14;19.30;99.90
23685;DHT22;12020;51.384;6.908;2022-08-19T00:11:41;19.40;99.90
23685;DHT22;12020;51.384;6.908;2022-08-19T00:14:08;19.30;99.90
23685;DHT22;12020;51.384;6.908;2022-08-19T00:16:36;19.30;99.90
23685;DHT22;12020;51.384;6.908;2022-08-19T00:19:02;19.30;99.90
23685;DHT22;12020;51.384;6.908;2022-08-19T00:21:28;19.30;99.90
23685;DHT22;12020;51.384;6.908;2022-08-19T00:23:55;19.30;99.90
23685;DHT22;12020;51.384;6.908;2022-08-19T00:26:24;19.20;99.90
23685;DHT22;12020;51.384;6.908;2022-08-19T00:28:51;19.20;99.90
23685;DHT22;12020;51.384;6.908;2022-08-19T00:31:17;19.10;99.90
23685;DHT22;12020;51.384;6.908;2022-08-19T00:33:43;19.10;99.90
23685;DHT22;12020;51.384;6.908;2022-08-19T00:36:09;19.10;99.90
23685;DHT22;12020;51.384;6.908;2022-08-19T00:38:36;19.00;99.90
23685;DHT22;12020;51.384;6.908;2022-08-19T00:41:02;19.00;99.90
23685;DHT22;12020;51.384;6.908;2022-08-19T00:43:28;19.00;99.90
23685;DHT22;12020;51.384;6.908;2022-08-19T00:45:54;18.90;99.90
23685;DHT22;12020;51.384;6.908;2022-08-19T00:48:21;19.00;99.90
23685;DHT22;12020;51.384;6.908;2022-08-19T00:50:48;18.90;99.90
23685;DHT22;12020;51.384;6.908;2022-08-19T00:53:19;18.80;99.90
23685;DHT22;12020;51.384;6.908;2022-08-19T00:55:48;18.80;99.90
23685;DHT22;12020;51.384;6.908;2022-08-19T00:58:17;18.80;99.90
23685;DHT22;12020;51.384;6.908;2022-08-19T01:00:45;18.80;99.90
23685;DHT22;12020;51.384;6.908;2022-08-19T01:03:15;18.80;99.90
23685;DHT22;12020;51.384;6.908;2022-08-19T01:05:43;18.70;99.90
23685;DHT22;12020;51.384;6.908;2022-08-19T01:08:10;18.70;99.90
23685;DHT22;12020;51.384;6.908;2022-08-19T01:10:43;18.70;99.90
23685;DHT22;12020;51.384;6.908;2022-08-19T01:13:11;18.70;99.90
23685;DHT22;12020;51.384;6.908;2022-08-19T01:15:43;18.70;99.90
23685;DHT22;12020;51.384;6.908;2022-08-19T01:18:13;18.70;99.90
23685;DHT22;12020;51.384;6.908;2022-08-19T01:20:40;18.70;99.90
23685;DHT22;12020;51.384;6.908;2022-08-19T01:23:07;18.70;99.90
23685;DHT22;12020;51.384;6.908;2022-08-19T01:25:48;18.60;99.90
23685;DHT22;12020;51.384;6.908;2022-08-19T01:28:21;18.60;99.90
23685;DHT22;12020;51.384;6.908;2022-08-19T01:30:48;18.60;99.90
23685;DHT22;12020;51.384;6.908;2022-08-19T01:33:14;18.60;99.90
23685;DHT22;12020;51.384;6.908;2022-08-19T01:35:41;18.50;99.90
23685;DHT22;12020;51.384;6.908;2022-08-19T01:38:18;18.50;99.90
23685;DHT22;12020;51.384;6.908;2022-08-19T01:40:44;18.50;99.90
23685;DHT22;12020;51.384;6.908;2022-08-19T01:43:10;18.60;99.90
23685;DHT22;12020;51.384;6.908;2022-08-19T01:45:36;18.50;99.90
23685;DHT22;12020;51.384;6.908;2022-08-19T01:48:03;18.50;99.90
23685;DHT22;12020;51.384;6.908;2022-08-19T01:50:31;18.50;99.90
23685;DHT22;12020;51.384;6.908;2022-08-19T01:52:58;18.50;99.90
23685;DHT22;12020;51.384;6.908;2022-08-19T01:55:25;18.40;99.90
23685;DHT22;12020;51.384;6.908;2022-08-19T01:57:58;18.40;99.90
23685;DHT22;12020;51.384;6.908;2022-08-19T02:00:28;18.40;99.90
23685;DHT22;12020;51.384;6.908;2022-08-19T02:02:55;18.40;99.90
23685;DHT22;12020;51.384;6.908;2022-08-19T02:05:22;18.40;99.90
23685;DHT22;12020;51.384;6.908;2022-08-19T02:07:49;18.30;99.90
23685;DHT22;12020;51.384;6.908;2022-08-19T02:10:18;18.30;99.90
23685;DHT22;12020;51.384;6.908;2022-08-19T02:12:44;18.20;99.90
23685;DHT22;12020;51.384;6.908;2022-08-19T02:15:11;18.30;99.90
23685;DHT22;12020;51.384;6.908;2022-08-19T02:17:37;18.30;99.90
23685;DHT22;12020;51.384;6.908;2022-08-19T02:20:04;18.20;99.90
23685;DHT22;12020;51.384;6.908;2022-08-19T02:22:32;18.20;99.90
23685;DHT22;12020;51.384;6.908;2022-08-19T02:24:58;18.20;99.90
23685;DHT22;12020;51.384;6.908;2022-08-19T02:27:24;18.20;99.90
23685;DHT22;12020;51.384;6.908;2022-08-19T02:29:51;18.20;99.90
23685;DHT22;12020;51.384;6.908;2022-08-19T02:32:18;18.20;99.90
23685;DHT22;12020;51.384;6.908;2022-08-19T02:34:47;18.20;99.90
23685;DHT22;12020;51.384;6.908;2022-08-19T02:37:14;18.20;99.90
23685;DHT22;12020;51.384;6.908;2022-08-19T02:39:59;18.20;99.90
23685;DHT22;12020;51.384;6.908;2022-08-19T02:42:25;18.20;99.90
23685;DHT22;12020;51.384;6.908;2022-08-19T02:44:50;18.10;99.90
23685;DHT22;12020;51.384;6.908;2022-08-19T02:47:17;18.20;99.90
23685;DHT22;12020;51.384;6.908;2022-08-19T02:49:44;18.10;99.90
23685;DHT22;12020;51.384;6.908;2022-08-19T02:52:10;18.10;99.90
23685;DHT22;12020;51.384;6.908;2022-08-19T02:54:37;18.10;99.90
23685;DHT22;12020;51.384;6.908;2022-08-19T02:57:04;18.10;99.90
23685;DHT22;12020;51.384;6.908;2022-08-19T02:59:30;18.10;99.90
23685;DHT22;12020;51.384;6.908;2022-08-19T03:01:56;18.00;99.90
23685;DHT22;12020;51.384;6.908;2022-08-19T03:04:22;18.00;99.90
23685;DHT22;12020;51.384;6.908;2022-08-19T03:06:49;18.00;99.90
23685;DHT22;12020;51.384;6.908;2022-08-19T03:09:15;18.00;99.90
23685;DHT22;12020;51.384;6.908;2022-08-19T03:11:41;18.00;99.90
23685;DHT22;12020;51.384;6.908;2022-08-19T03:14:08;17.90;99.90
23685;DHT22;12020;51.384;6.908;2022-08-19T03:16:46;17.90;99.90
23685;DHT22;12020;51.384;6.908;2022-08-19T03:19:12;17.90;99.90
23685;DHT22;12020;51.384;6.908;2022-08-19T03:21:38;17.90;99.90
23685;DHT22;12020;51.384;6.908;2022-08-19T03:24:07;17.90;99.90
23685;DHT22;12020;51.384;6.908;2022-08-19T03:26:33;17.90;99.90
23685;DHT22;12020;51.384;6.908;2022-08-19T03:29:04;17.90;99.90
23685;DHT22;12020;51.384;6.908;2022-08-19T03:31:30;17.80;99.90
23685;DHT22;12020;51.384;6.908;2022-08-19T03:33:56;17.80;99.90
23685;DHT22;12020;51.384;6.908;2022-08-19T03:36:25;17.80;99.90
23685;DHT22;12020;51.384;6.908;2022-08-19T03:38:52;17.80;99.90
23685;DHT22;12020;51.384;6.908;2022-08-19T03:41:25;17.80;99.90
23685;DHT22;12020;51.384;6.908;2022-08-19T03:43:52;17.80;99.90
23685;DHT22;12020;51.384;6.908;2022-08-19T03:46:21;17.70;99.90
23685;DHT22;12020;51.384;6.908;2022-08-19T03:48:48;17.70;99.90
23685;DHT22;12020;51.384;6.908;2022-08-19T03:51:39;17.70;99.90
23685;DHT22;12020;51.384;6.908;2022-08-19T03:54:08;17.70;99.90
23685;DHT22;12020;51.384;6.908;2022-08-19T03:56:36;17.70;99.90
23685;DHT22;12020;51.384;6.908;2022-08-19T03:59:03;17.70;99.90
23685;DHT22;12020;51.384;6.908;2022-08-19T04:01:30;17.70;99.90
23685;DHT22;12020;51.384;6.908;2022-08-19T04:03:56;17.70;99.90
23685;DHT22;12020;51.384;6.908;2022-08-19T04:06:25;17.70;99.90
23685;DHT22;12020;51.384;6.908;2022-08-19T04:08:53;17.70;99.90
23685;DHT22;12020;51.384;6.908;2022-08-19T04:11:22;17.70;99.90
23685;DHT22;12020;51.384;6.908;2022-08-19T04:13:49;17.70;99.90
23685;DHT22;12020;51.384;6.908;2022-08-19T04:16:18;17.70;99.90
23685;DHT22;12020;51.384;6.908;2022-08-19T04:18:45;17.70;99.90
23685;DHT22;12020;51.384;6.908;2022-08-19T04:21:17;17.70;99.90
23685;DHT22;12020;51.384;6.908;2022-08-19T04:23:44;17.60;99.90
23685;DHT22;12020;51.384;6.908;2022-08-19T04:26:25;17.60;99.90
23685;DHT22;12020;51.384;6.908;2022-08-19T04:28:51;17.60;99.90
23685;DHT22;12020;51.384;6.908;2022-08-19T04:31:26;17.60;99.90
23685;DHT22;12020;51.384;6.908;2022-08-19T04:33:53;17.60;99.90
23685;DHT22;12020;51.384;6.908;2022-08-19T04:36:30;17.50;99.90
23685;DHT22;12020;51.384;6.908;2022-08-19T04:38:57;17.50;99.90
23685;DHT22;12020;51.384;6.908;2022-08-19T04:41:24;17.50;99.90
23685;DHT22;12020;51.384;6.908;2022-08-19T04:44:08;17.50;99.90
23685;DHT22;12020;51.384;6.908;2022-08-19T04:46:34;17.60;99.90
23685;DHT22;12020;51.384;6.908;2022-08-19T04:49:01;17.50;99.90
23685;DHT22;12020;51.384;6.908;2022-08-19T04:51:27;17.50;99.90
23685;DHT22;12020;51.384;6.908;2022-08-19T04:53:56;17.50;99.90
23685;DHT22;12020;51.384;6.908;2022-08-19T04:56:22;17.50;99.90
23685;DHT22;12020;51.384;6.908;2022-08-19T04:58:51;17.50;99.90
23685;DHT22;12020;51.384;6.908;2022-08-19T05:01:19;17.50;99.90
23685;DHT22;12020;51.384;6.908;2022-08-19T05:03:46;17.50;99.90
23685;DHT22;12020;51.384;6.908;2022-08-19T05:06:14;17.60;99.90
23685;DHT22;12020;51.384;6.908;2022-08-19T05:08:41;17.60;99.90
23685;DHT22;12020;51.384;6.908;2022-08-19T05:11:25;17.70;99.90
23685;DHT22;12020;51.384;6.908;2022-08-19T05:13:52;17.80;99.90
23685;DHT22;12020;51.384;6.908;2022-08-19T05:16:21;18.00;99.90
23685;DHT22;12020;51.384;6.908;2022-08-19T05:18:48;18.10;99.90
23685;DHT22;12020;51.384;6.908;2022-08-19T05:21:33;18.10;99.90
23685;DHT22;12020;51.384;6.908;2022-08-19T05:24:22;18.10;99.90
23685;DHT22;12020;51.384;6.908;2022-08-19T05:26:51;18.30;99.90
23685;DHT22;12020;51.384;6.908;2022-08-19T05:29:21;18.50;99.90
23685;DHT22;12020;51.384;6.908;2022-08-19T05:31:48;18.50;99.90
23685;DHT22;12020;51.384;6.908;2022-08-19T05:34:18;18.40;99.90
23685;DHT22;12020;51.384;6.908;2022-08-19T05:36:47;18.40;99.90
23685;DHT22;12020;51.384;6.908;2022-08-19T05:39:16;18.30;99.90
23685;DHT22;12020;51.384;6.908;2022-08-19T05:41:43;18.30;99.90
23685;DHT22;12020;51.384;6.908;2022-08-19T05:44:09;18.30;99.90
23685;DHT22;12020;51.384;6.908;2022-08-19T05:46:41;18.30;99.90
23685;DHT22;12020;51.384;6.908;2022-08-19T05:49:08;18.30;99.90
23685;DHT22;12020;51.384;6.908;2022-08-19T05:51:35;18.30;99.90
23685;DHT22;12020;51.384;6.908;2022-08-19T05:54:03;18.30;99.90
23685;DHT22;12020;51.384;6.908;2022-08-19T05:56:29;18.30;99.90
23685;DHT22;12020;51.384;6.908;2022-08-19T05:58:57;18.40;99.90
23685;DHT22;12020;51.384;6.908;2022-08-19T06:01:25;18.50;99.90
23685;DHT22;12020;51.384;6.908;2022-08-19T06:03:51;18.50;99.90
23685;DHT22;12020;51.384;6.908;2022-08-19T06:06:18;18.60;99.90
23685;DHT22;12020;51.384;6.908;2022-08-19T06:08:44;18.60;99.90
23685;DHT22;12020;51.384;6.908;2022-08-19T06:11:25;18.70;99.90
23685;DHT22;12020;51.384;6.908;2022-08-19T06:13:59;18.70;99.90
23685;DHT22;12020;51.384;6.908;2022-08-19T06:16:26;18.80;99.90
23685;DHT22;12020;51.384;6.908;2022-08-19T06:18:53;18.90;99.90
23685;DHT22;12020;51.384;6.908;2022-08-19T06:21:24;18.90;99.90
23685;DHT22;12020;51.384;6.908;2022-08-19T06:23:52;19.00;99.90
23685;DHT22;12020;51.384;6.908;2022-08-19T06:26:19;19.00;99.90
23685;DHT22;12020;51.384;6.908;2022-08-19T06:28:47;19.00;99.90
23685;DHT22;12020;51.384;6.908;2022-08-19T06:31:18;19.10;99.90
23685;DHT22;12020;51.384;6.908;2022-08-19T06:33:46;19.10;99.90
23685;DHT22;12020;51.384;6.908;2022-08-19T06:36:25;19.10;99.90
23685;DHT22;12020;51.384;6.908;2022-08-19T06:38:53;19.10;99.90
23685;DHT22;12020;51.384;6.908;2022-08-19T06:41:19;19.10;99.90
23685;DHT22;12020;51.384;6.908;2022-08-19T06:43:45;19.10;99.90
23685;DHT22;12020;51.384;6.908;2022-08-19T06:46:16;19.20;99.90
23685;DHT22;12020;51.384;6.908;2022-08-19T06:48:44;19.20;99.90
23685;DHT22;12020;51.384;6.908;2022-08-19T06:51:10;19.20;99.90
23685;DHT22;12020;51.384;6.908;2022-08-19T06:53:35;19.10;99.90
23685;DHT22;12020;51.384;6.908;2022-08-19T06:56:01;19.20;99.90
23685;DHT22;12020;51.384;6.908;2022-08-19T06:58:30;19.20;99.90
23685;DHT22;12020;51.384;6.908;2022-08-19T07:01:03;19.20;99.90
23685;DHT22;12020;51.384;6.908;2022-08-19T07:03:32;19.20;99.90
23685;DHT22;12020;51.384;6.908;2022-08-19T07:06:04;19.30;99.90
23685;DHT22;12020;51.384;6.908;2022-08-19T07:08:30;19.30;99.90
23685;DHT22;12020;51.384;6.908;2022-08-19T07:10:57;19.40;99.90
23685;DHT22;12020;51.384;6.908;2022-08-19T07:13:22;19.40;99.90
23685;DHT22;12020;51.384;6.908;2022-08-19T07:15:49;19.50;99.90
23685;DHT22;12020;51.384;6.908;2022-08-19T07:18:19;19.50;99.90
23685;DHT22;12020;51.384;6.908;2022-08-19T07:20:46;19.50;99.90
23685;DHT22;12020;51.384;6.908;2022-08-19T07:23:12;19.60;99.90
23685;DHT22;12020;51.384;6.908;2022-08-19T07:25:39;19.60;99.90
23685;DHT22;12020;51.384;6.908;2022-08-19T07:28:05;19.70;99.90
23685;DHT22;12020;51.384;6.908;2022-08-19T07:30:35;19.70;99.90
23685;DHT22;12020;51.384;6.908;2022-08-19T07:33:01;19.70;99.90
23685;DHT22;12020;51.384;6.908;2022-08-19T07:35:27;19.80;99.90
23685;DHT22;12020;51.384;6.908;2022-08-19T07:37:53;19.90;99.90
23685;DHT22;12020;51.384;6.908;2022-08-19T07:40:19;20.00;99.90
23685;DHT22;12020;51.384;6.908;2022-08-19T07:42:45;20.10;99.90
23685;DHT22;12020;51.384;6.908;2022-08-19T07:45:10;20.10;99.90
23685;DHT22;12020;51.384;6.908;2022-08-19T07:47:36;20.20;99.90
23685;DHT22;12020;51.384;6.908;2022-08-19T07:50:03;20.30;99.90
23685;DHT22;12020;51.384;6.908;2022-08-19T07:52:29;20.40;99.90
23685;DHT22;12020;51.384;6.908;2022-08-19T07:54:55;20.60;99.90
23685;DHT22;12020;51.384;6.908;2022-08-19T07:57:24;20.70;99.90
23685;DHT22;12020;51.384;6.908;2022-08-19T07:59:49;20.90;99.90
23685;DHT22;12020;51.384;6.908;2022-08-19T08:02:15;21.10;99.90
23685;DHT22;12020;51.384;6.908;2022-08-19T08:04:40;21.30;99.90
23685;DHT22;12020;51.384;6.908;2022-08-19T08:07:25;21.50;99.90
23685;DHT22;12020;51.384;6.908;2022-08-19T08:10:25;21.80;99.90
23685;DHT22;12020;51.384;6.908;2022-08-19T08:12:51;22.00;99.90
23685;DHT22;12020;51.384;6.908;2022-08-19T08:15:17;22.20;99.90
23685;DHT22;12020;51.384;6.908;2022-08-19T08:17:44;22.40;99.90
23685;DHT22;12020;51.384;6.908;2022-08-19T08:20:12;22.50;99.90
23685;DHT22;12020;51.384;6.908;2022-08-19T08:22:43;22.60;99.90
23685;DHT22;12020;51.384;6.908;2022-08-19T08:25:29;22.70;99.90
23685;DHT22;12020;51.384;6.908;2022-08-19T08:27:55;22.80;99.90
23685;DHT22;12020;51.384;6.908;2022-08-19T08:30:26;22.90;99.90
23685;DHT22;12020;51.384;6.908;2022-08-19T08:32:52;23.00;99.90
23685;DHT22;12020;51.384;6.908;2022-08-19T08:35:21;23.10;99.90
23685;DHT22;12020;51.384;6.908;2022-08-19T08:37:48;23.30;99.90
23685;DHT22;12020;51.384;6.908;2022-08-19T08:43:07;23.50;99.90
23685;DHT22;12020;51.384;6.908;2022-08-19T08:45:37;23.60;99.90
23685;DHT22;12020;51.384;6.908;2022-08-19T08:48:19;23.70;99.90
23685;DHT22;12020;51.384;6.908;2022-08-19T08:50:48;23.70;99.90
23685;DHT22;12020;51.384;6.908;2022-08-19T08:53:19;23.70;99.90
23685;DHT22;12020;51.384;6.908;2022-08-19T08:55:46;23.70;99.90
23685;DHT22;12020;51.384;6.908;2022-08-19T08:58:16;23.60;99.90
23685;DHT22;12020;51.384;6.908;2022-08-19T09:00:47;23.60;99.90
23685;DHT22;12020;51.384;6.908;2022-08-19T09:03:30;23.60;99.90
23685;DHT22;12020;51.384;6.908;2022-08-19T09:06:30;23.70;99.90
23685;DHT22;12020;51.384;6.908;2022-08-19T09:11:56;23.90;99.90
23685;DHT22;12020;51.384;6.908;2022-08-19T09:17:00;24.10;99.90
23685;DHT22;12020;51.384;6.908;2022-08-19T09:19:29;24.10;99.90
23685;DHT22;12020;51.384;6.908;2022-08-19T09:21:55;24.10;99.90
23685;DHT22;12020;51.384;6.908;2022-08-19T09:24:21;24.20;99.90
23685;DHT22;12020;51.384;6.908;2022-08-19T09:26:47;24.30;99.90
23685;DHT22;12020;51.384;6.908;2022-08-19T09:29:13;24.40;99.90
23685;DHT22;12020;51.384;6.908;2022-08-19T09:31:39;24.50;99.90
23685;DHT22;12020;51.384;6.908;2022-08-19T09:34:04;24.50;99.90
23685;DHT22;12020;51.384;6.908;2022-08-19T09:36:31;24.80;99.90
23685;DHT22;12020;51.384;6.908;2022-08-19T09:39:03;25.00;99.90
23685;DHT22;12020;51.384;6.908;2022-08-19T09:41:30;25.10;99.90
23685;DHT22;12020;51.384;6.908;2022-08-19T09:43:57;25.30;99.90
23685;DHT22;12020;51.384;6.908;2022-08-19T09:46:26;25.20;99.90
23685;DHT22;12020;51.384;6.908;2022-08-19T09:48:54;25.10;99.90
23685;DHT22;12020;51.384;6.908;2022-08-19T09:51:25;25.20;99.90
23685;DHT22;12020;51.384;6.908;2022-08-19T09:53:58;25.30;99.90
23685;DHT22;12020;51.384;6.908;2022-08-19T09:56:24;25.40;99.90
23685;DHT22;12020;51.384;6.908;2022-08-19T09:58:50;25.40;99.90
23685;DHT22;12020;51.384;6.908;2022-08-19T10:01:22;25.50;99.90
23685;DHT22;12020;51.384;6.908;2022-08-19T10:04:09;25.60;99.90
23685;DHT22;12020;51.384;6.908;2022-08-19T10:06:38;25.60;99.90
23685;DHT22;12020;51.384;6.908;2022-08-19T10:09:05;25.60;99.90
23685;DHT22;12020;51.384;6.908;2022-08-19T10:11:32;25.70;99.90
23685;DHT22;12020;51.384;6.908;2022-08-19T10:13:59;25.80;99.90
23685;DHT22;12020;51.384;6.908;2022-08-19T10:16:25;25.80;99.90
23685;DHT22;12020;51.384;6.908;2022-08-19T10:18:52;25.90;99.90
23685;DHT22;12020;51.384;6.908;2022-08-19T10:21:27;25.80;99.90
23685;DHT22;12020;51.384;6.908;2022-08-19T10:23:55;25.60;99.90
23685;DHT22;12020;51.384;6.908;2022-08-19T10:26:30;25.60;99.90
23685;DHT22;12020;51.384;6.908;2022-08-19T10:28:56;25.70;99.90
23685;DHT22;12020;51.384;6.908;2022-08-19T10:31:31;25.80;99.90
23685;DHT22;12020;51.384;6.908;2022-08-19T10:34:01;25.90;99.90
23685;DHT22;12020;51.384;6.908;2022-08-19T10:36:32;25.90;99.90
23685;DHT22;12020;51.384;6.908;2022-08-19T10:39:00;25.90;99.90
23685;DHT22;12020;51.384;6.908;2022-08-19T10:41:30;26.00;99.90
23685;DHT22;12020;51.384;6.908;2022-08-19T10:43:59;25.90;99.90
23685;DHT22;12020;51.384;6.908;2022-08-19T10:46:27;25.70;99.90
23685;DHT22;12020;51.384;6.908;2022-08-19T10:48:54;25.60;99.90
23685;DHT22;12020;51.384;6.908;2022-08-19T10:51:20;25.50;99.90
23685;DHT22;12020;51.384;6.908;2022-08-19T10:54:06;25.50;99.90
23685;DHT22;12020;51.384;6.908;2022-08-19T10:56:40;25.70;99.90
23685;DHT22;12020;51.384;6.908;2022-08-19T10:59:26;25.70;99.90
23685;DHT22;12020;51.384;6.908;2022-08-19T11:02:04;25.70;99.90
23685;DHT22;12020;51.384;6.908;2022-08-19T11:04:29;25.70;99.90
23685;DHT22;12020;51.384;6.908;2022-08-19T11:06:58;25.70;99.90
23685;DHT22;12020;51.384;6.908;2022-08-19T11:09:25;25.60;99.90
23685;DHT22;12020;51.384;6.908;2022-08-19T11:11:54;25.60;99.90
23685;DHT22;12020;51.384;6.908;2022-08-19T11:14:23;25.50;99.90
23685;DHT22;12020;51.384;6.908;2022-08-19T11:16:50;25.60;99.90
23685;DHT22;12020;51.384;6.908;2022-08-19T11:19:17;25.70;99.90
23685;DHT22;12020;51.384;6.908;2022-08-19T11:21:47;25.80;99.90
23685;DHT22;12020;51.384;6.908;2022-08-19T11:24:24;25.80;99.90
23685;DHT22;12020;51.384;6.908;2022-08-19T11:26:51;25.80;99.90
23685;DHT22;12020;51.384;6.908;2022-08-19T11:29:20;25.70;99.90
23685;DHT22;12020;51.384;6.908;2022-08-19T11:31:49;25.70;99.90
23685;DHT22;12020;51.384;6.908;2022-08-19T11:34:19;25.70;99.90
23685;DHT22;12020;51.384;6.908;2022-08-19T11:36:46;25.70;99.90
23685;DHT22;12020;51.384;6.908;2022-08-19T11:39:16;25.70;99.90
23685;DHT22;12020;51.384;6.908;2022-08-19T11:41:43;25.80;99.90
23685;DHT22;12020;51.384;6.908;2022-08-19T11:44:10;25.90;99.90
23685;DHT22;12020;51.384;6.908;2022-08-19T11:46:37;26.00;99.90
23685;DHT22;12020;51.384;6.908;2022-08-19T11:49:05;26.00;99.90
23685;DHT22;12020;51.384;6.908;2022-08-19T11:51:34;26.00;99.90
23685;DHT22;12020;51.384;6.908;2022-08-19T11:54:00;26.20;99.90
23685;DHT22;12020;51.384;6.908;2022-08-19T11:56:27;26.40;99.90
23685;DHT22;12020;51.384;6.908;2022-08-19T11:58:54;26.60;99.90
23685;DHT22;12020;51.384;6.908;2022-08-19T12:01:23;26.60;99.90
23685;DHT22;12020;51.384;6.908;2022-08-19T12:03:51;26.70;99.90
23685;DHT22;12020;51.384;6.908;2022-08-19T12:06:20;26.70;99.90
23685;DHT22;12020;51.384;6.908;2022-08-19T12:08:48;26.80;99.90
23685;DHT22;12020;51.384;6.908;2022-08-19T12:11:14;26.90;99.90
23685;DHT22;12020;51.384;6.908;2022-08-19T12:13:40;27.00;99.90
23685;DHT22;12020;51.384;6.908;2022-08-19T12:16:08;27.00;99.90
23685;DHT22;12020;51.384;6.908;2022-08-19T12:18:36;27.10;99.90
23685;DHT22;12020;51.384;6.908;2022-08-19T12:21:03;27.20;99.90
23685;DHT22;12020;51.384;6.908;2022-08-19T12:23:29;27.20;99.90
23685;DHT22;12020;51.384;6.908;2022-08-19T12:25:56;27.30;99.90
23685;DHT22;12020;51.384;6.908;2022-08-19T12:28:24;27.30;99.90
23685;DHT22;12020;51.384;6.908;2022-08-19T12:31:12;27.30;99.90
23685;DHT22;12020;51.384;6.908;2022-08-19T12:33:39;27.20;99.90
23685;DHT22;12020;51.384;6.908;2022-08-19T12:36:08;27.20;99.90
23685;DHT22;12020;51.384;6.908;2022-08-19T12:38:34;27.00;99.90
23685;DHT22;12020;51.384;6.908;2022-08-19T12:41:01;27.00;99.90
23685;DHT22;12020;51.384;6.908;2022-08-19T12:43:33;27.10;99.90
23685;DHT22;12020;51.384;6.908;2022-08-19T12:46:00;27.20;99.90
23685;DHT22;12020;51.384;6.908;2022-08-19T12:48:25;27.20;99.90
23685;DHT22;12020;51.384;6.908;2022-08-19T12:50:51;27.30;99.90
23685;DHT22;12020;51.384;6.908;2022-08-19T12:53:17;27.20;99.90
23685;DHT22;12020;51.384;6.908;2022-08-19T12:55:44;27.20;99.90
23685;DHT22;12020;51.384;6.908;2022-08-19T12:58:09;27.00;99.90
23685;DHT22;12020;51.384;6.908;2022-08-19T13:00:36;27.00;99.90
23685;DHT22;12020;51.384;6.908;2022-08-19T13:03:01;27.00;99.90
23685;DHT22;12020;51.384;6.908;2022-08-19T13:05:30;27.00;99.90
23685;DHT22;12020;51.384;6.908;2022-08-19T13:07:57;26.90;99.90
23685;DHT22;12020;51.384;6.908;2022-08-19T13:10:28;26.80;99.90
23685;DHT22;12020;51.384;6.908;2022-08-19T13:12:55;26.70;99.90
23685;DHT22;12020;51.384;6.908;2022-08-19T13:15:22;26.80;99.90
23685;DHT22;12020;51.384;6.908;2022-08-19T13:18:04;26.90;99.90
23685;DHT22;12020;51.384;6.908;2022-08-19T13:20:30;26.90;99.90
23685;DHT22;12020;51.384;6.908;2022-08-19T13:22:55;26.90;99.90
23685;DHT22;12020;51.384;6.908;2022-08-19T13:25:22;26.90;99.90
23685;DHT22;12020;51.384;6.908;2022-08-19T13:27:49;26.80;99.90
23685;DHT22;12020;51.384;6.908;2022-08-19T13:30:16;26.80;99.90
23685;DHT22;12020;51.384;6.908;2022-08-19T13:33:02;26.90;99.90
23685;DHT22;12020;51.384;6.908;2022-08-19T13:35:49;26.90;99.90
23685;DHT22;12020;51.384;6.908;2022-08-19T13:38:19;27.00;99.90
23685;DHT22;12020;51.384;6.908;2022-08-19T13:40:52;26.90;99.90
23685;DHT22;12020;51.384;6.908;2022-08-19T13:43:19;27.00;99.90
23685;DHT22;12020;51.384;6.908;2022-08-19T13:45:47;27.00;99.90
23685;DHT22;12020;51.384;6.908;2022-08-19T13:48:13;27.10;99.90
23685;DHT22;12020;51.384;6.908;2022-08-19T13:50:44;27.10;99.90
23685;DHT22;12020;51.384;6.908;2022-08-19T13:53:11;27.20;99.50
23685;DHT22;12020;51.384;6.908;2022-08-19T13:55:44;27.20;99.70
23685;DHT22;12020;51.384;6.908;2022-08-19T13:58:10;27.20;99.90
23685;DHT22;12020;51.384;6.908;2022-08-19T14:00:40;27.30;99.90
23685;DHT22;12020;51.384;6.908;2022-08-19T14:03:06;27.30;99.60
23685;DHT22;12020;51.384;6.908;2022-08-19T14:05:33;27.20;99.40
23685;DHT22;12020;51.384;6.908;2022-08-19T14:08:00;27.10;99.90
23685;DHT22;12020;51.384;6.908;2022-08-19T14:10:27;27.10;99.90
23685;DHT22;12020;51.384;6.908;2022-08-19T14:12:58;27.00;99.90
23685;DHT22;12020;51.384;6.908;2022-08-19T14:15:24;27.00;99.90
23685;DHT22;12020;51.384;6.908;2022-08-19T14:17:52;27.00;99.90
23685;DHT22;12020;51.384;6.908;2022-08-19T14:20:19;27.10;99.90
23685;DHT22;12020;51.384;6.908;2022-08-19T14:22:45;27.10;99.90
23685;DHT22;12020;51.384;6.908;2022-08-19T14:25:15;27.10;99.50
23685;DHT22;12020;51.384;6.908;2022-08-19T14:27:41;27.20;99.20
23685;DHT22;12020;51.384;6.908;2022-08-19T14:30:09;27.20;99.10
23685;DHT22;12020;51.384;6.908;2022-08-19T14:32:38;27.10;98.70
23685;DHT22;12020;51.384;6.908;2022-08-19T14:35:05;27.20;99.50
23685;DHT22;12020;51.384;6.908;2022-08-19T14:37:33;27.20;98.90
23685;DHT22;12020;51.384;6.908;2022-08-19T14:39:59;27.20;99.10
23685;DHT22;12020;51.384;6.908;2022-08-19T14:42:25;27.20;99.10
23685;DHT22;12020;51.384;6.908;2022-08-19T14:44:50;27.30;99.30
23685;DHT22;12020;51.384;6.908;2022-08-19T14:47:16;27.30;99.50
23685;DHT22;12020;51.384;6.908;2022-08-19T14:49:42;27.30;99.50
23685;DHT22;12020;51.384;6.908;2022-08-19T14:52:07;27.30;99.20
23685;DHT22;12020;51.384;6.908;2022-08-19T14:54:44;27.30;98.90
23685;DHT22;12020;51.384;6.908;2022-08-19T14:57:12;27.30;98.80
23685;DHT22;12020;51.384;6.908;2022-08-19T14:59:38;27.40;98.90
23685;DHT22;12020;51.384;6.908;2022-08-19T15:02:04;27.40;98.90
23685;DHT22;12020;51.384;6.908;2022-08-19T15:04:30;27.30;98.10
23685;DHT22;12020;51.384;6.908;2022-08-19T15:06:56;27.30;98.00
23685;DHT22;12020;51.384;6.908;2022-08-19T15:09:21;27.20;98.50
23685;DHT22;12020;51.384;6.908;2022-08-19T15:11:48;27.20;98.70
23685;DHT22;12020;51.384;6.908;2022-08-19T15:14:16;27.20;98.40
23685;DHT22;12020;51.384;6.908;2022-08-19T15:16:42;27.20;98.10
23685;DHT22;12020;51.384;6.908;2022-08-19T15:19:08;27.30;98.50
23685;DHT22;12020;51.384;6.908;2022-08-19T15:21:34;27.30;99.00
23685;DHT22;12020;51.384;6.908;2022-08-19T15:24:03;27.30;98.70
23685;DHT22;12020;51.384;6.908;2022-08-19T15:26:30;27.30;98.40
23685;DHT22;12020;51.384;6.908;2022-08-19T15:28:59;27.20;97.70
23685;DHT22;12020;51.384;6.908;2022-08-19T15:31:25;27.10;97.40
23685;DHT22;12020;51.384;6.908;2022-08-19T15:33:51;27.10;97.30
23685;DHT22;12020;51.384;6.908;2022-08-19T15:36:18;27.10;97.60
23685;DHT22;12020;51.384;6.908;2022-08-19T15:38:44;27.00;97.20
23685;DHT22;12020;51.384;6.908;2022-08-19T15:41:17;27.00;96.40
23685;DHT22;12020;51.384;6.908;2022-08-19T15:44:00;27.00;96.60
23685;DHT22;12020;51.384;6.908;2022-08-19T15:46:31;26.90;96.50
23685;DHT22;12020;51.384;6.908;2022-08-19T15:48:57;26.80;96.30